sensor_id;sensor_type;location;lat;lon;timestamp;temperature;humidity
21092;DHT22;10704;42.678;23.288;2022-12-18T00:02:16;6.20;99.90
21092;DHT22;10704;42.678;23.288;2022-12-18T00:04:42;6.10;99.90
21092;DHT22;10704;42.678;23.288;2022-12-18T00:07:08;6.10;99.90
21092;DHT22;10704;42.678;23.288;2022-12-18T00:09:34;6.00;99.90
21092;DHT22;10704;42.678;23.288;2022-12-18T00:12:00;6.00;99.90
21092;DHT22;10704;42.678;23.288;2022-12-18T00:14:26;6.00;99.90
21092;DHT22;10704;42.678;23.288;2022-12-18T00:16:51;6.00;99.90
21092;DHT22;10704;42.678;23.288;2022-12-18T00:19:17;6.10;99.90
21092;DHT22;10704;42.678;23.288;2022-12-18T00:21:43;6.00;99.90
21092;DHT22;10704;42.678;23.288;2022-12-18T00:24:10;6.00;99.90
21092;DHT22;10704;42.678;23.288;2022-12-18T00:26:38;5.90;99.90
21092;DHT22;10704;42.678;23.288;2022-12-18T00:29:11;6.00;99.90
21092;DHT22;10704;42.678;23.288;2022-12-18T00:31:40;6.00;99.90
21092;DHT22;10704;42.678;23.288;2022-12-18T00:34:06;6.00;99.90
21092;DHT22;10704;42.678;23.288;2022-12-18T00:36:34;6.00;99.90
21092;DHT22;10704;42.678;23.288;2022-12-18T00:39:01;5.90;99.90
21092;DHT22;10704;42.678;23.288;2022-12-18T00:41:28;5.90;99.90
21092;DHT22;10704;42.678;23.288;2022-12-18T00:48:12;5.90;99.90
21092;DHT22;10704;42.678;23.288;2022-12-18T00:54:56;5.70;99.90
21092;DHT22;10704;42.678;23.288;2022-12-18T00:57:22;5.60;99.90
21092;DHT22;10704;42.678;23.288;2022-12-18T00:59:48;5.50;99.90
21092;DHT22;10704;42.678;23.288;2022-12-18T01:02:14;5.50;99.90
21092;DHT22;10704;42.678;23.288;2022-12-18T01:04:39;5.50;99.90
21092;DHT22;10704;42.678;23.288;2022-12-18T01:07:06;5.40;99.90
21092;DHT22;10704;42.678;23.288;2022-12-18T01:09:33;5.40;99.90
21092;DHT22;10704;42.678;23.288;2022-12-18T01:12:00;5.40;99.90
21092;DHT22;10704;42.678;23.288;2022-12-18T01:14:44;5.40;99.90
21092;DHT22;10704;42.678;23.288;2022-12-18T01:24:15;5.20;99.90
21092;DHT22;10704;42.678;23.288;2022-12-18T01:30:28;5.10;99.90
21092;DHT22;10704;42.678;23.288;2022-12-18T01:36:41;5.10;99.90
21092;DHT22;10704;42.678;23.288;2022-12-18T01:42:54;5.10;99.90
21092;DHT22;10704;42.678;23.288;2022-12-18T01:49:08;5.20;99.90
21092;DHT22;10704;42.678;23.288;2022-12-18T01:51:34;5.20;99.90
21092;DHT22;10704;42.678;23.288;2022-12-18T01:57:48;5.00;99.90
21092;DHT22;10704;42.678;23.288;2022-12-18T02:00:19;5.00;99.90
21092;DHT22;10704;42.678;23.288;2022-12-18T02:02:55;5.00;99.90
21092;DHT22;10704;42.678;23.288;2022-12-18T02:32:51;4.90;99.90
21092;DHT22;10704;42.678;23.288;2022-12-18T02:42:11;4.90;99.90
21092;DHT22;10704;42.678;23.288;2022-12-18T02:44:45;4.90;99.90
21092;DHT22;10704;42.678;23.288;2022-12-18T02:59:24;4.70;99.90
21092;DHT22;10704;42.678;23.288;2022-12-18T03:02:03;4.70;99.90
21092;DHT22;10704;42.678;23.288;2022-12-18T03:04:39;4.70;99.90
21092;DHT22;10704;42.678;23.288;2022-12-18T03:07:11;4.60;99.90
21092;DHT22;10704;42.678;23.288;2022-12-18T03:09:42;4.60;99.90
21092;DHT22;10704;42.678;23.288;2022-12-18T03:15:59;4.60;99.90
21092;DHT22;10704;42.678;23.288;2022-12-18T03:18:37;4.50;99.90
21092;DHT22;10704;42.678;23.288;2022-12-18T03:21:06;4.40;99.90
21092;DHT22;10704;42.678;23.288;2022-12-18T03:23:42;4.40;99.90
21092;DHT22;10704;42.678;23.288;2022-12-18T03:26:17;4.40;99.90
21092;DHT22;10704;42.678;23.288;2022-12-18T03:28:59;4.40;99.90
21092;DHT22;10704;42.678;23.288;2022-12-18T03:31:29;4.40;99.90
21092;DHT22;10704;42.678;23.288;2022-12-18T03:34:03;4.40;99.90
21092;DHT22;10704;42.678;23.288;2022-12-18T03:36:38;4.40;99.90
21092;DHT22;10704;42.678;23.288;2022-12-18T03:39:05;4.50;99.90
21092;DHT22;10704;42.678;23.288;2022-12-18T03:41:44;4.50;99.90
21092;DHT22;10704;42.678;23.288;2022-12-18T03:47:32;4.60;99.90
21092;DHT22;10704;42.678;23.288;2022-12-18T03:50:21;4.60;99.90
21092;DHT22;10704;42.678;23.288;2022-12-18T03:52:54;4.50;99.90
21092;DHT22;10704;42.678;23.288;2022-12-18T03:55:25;4.50;99.90
21092;DHT22;10704;42.678;23.288;2022-12-18T03:57:59;4.50;99.90
21092;DHT22;10704;42.678;23.288;2022-12-18T04:00:31;4.50;99.90
21092;DHT22;10704;42.678;23.288;2022-12-18T04:03:06;4.40;99.90
21092;DHT22;10704;42.678;23.288;2022-12-18T04:05:44;4.40;99.90
21092;DHT22;10704;42.678;23.288;2022-12-18T04:08:12;4.40;99.90
21092;DHT22;10704;42.678;23.288;2022-12-18T04:10:42;4.40;99.90
21092;DHT22;10704;42.678;23.288;2022-12-18T04:13:09;4.40;99.90
21092;DHT22;10704;42.678;23.288;2022-12-18T04:15:36;4.50;99.90
21092;DHT22;10704;42.678;23.288;2022-12-18T04:18:04;4.40;99.90
21092;DHT22;10704;42.678;23.288;2022-12-18T04:20:38;4.40;99.90
21092;DHT22;10704;42.678;23.288;2022-12-18T04:23:04;4.30;99.90
21092;DHT22;10704;42.678;23.288;2022-12-18T04:25:30;4.20;99.90
21092;DHT22;10704;42.678;23.288;2022-12-18T04:28:06;4.20;99.90
21092;DHT22;10704;42.678;23.288;2022-12-18T04:30:33;4.20;99.90
21092;DHT22;10704;42.678;23.288;2022-12-18T04:32:59;4.20;99.90
21092;DHT22;10704;42.678;23.288;2022-12-18T04:35:24;4.10;99.90
21092;DHT22;10704;42.678;23.288;2022-12-18T04:37:51;4.10;99.90
21092;DHT22;10704;42.678;23.288;2022-12-18T04:40:17;4.00;99.90
21092;DHT22;10704;42.678;23.288;2022-12-18T04:42:45;4.00;99.90
21092;DHT22;10704;42.678;23.288;2022-12-18T04:45:11;4.00;99.90
21092;DHT22;10704;42.678;23.288;2022-12-18T04:51:24;3.90;99.90
21092;DHT22;10704;42.678;23.288;2022-12-18T04:53:50;4.00;99.90
21092;DHT22;10704;42.678;23.288;2022-12-18T04:56:16;4.00;99.90
21092;DHT22;10704;42.678;23.288;2022-12-18T04:58:44;4.10;99.90
21092;DHT22;10704;42.678;23.288;2022-12-18T05:01:14;4.00;99.90
21092;DHT22;10704;42.678;23.288;2022-12-18T05:03:40;4.00;99.90
21092;DHT22;10704;42.678;23.288;2022-12-18T05:06:07;4.00;99.90
21092;DHT22;10704;42.678;23.288;2022-12-18T05:08:33;4.00;99.90
21092;DHT22;10704;42.678;23.288;2022-12-18T05:11:12;4.00;99.90
21092;DHT22;10704;42.678;23.288;2022-12-18T05:13:39;3.90;99.90
21092;DHT22;10704;42.678;23.288;2022-12-18T05:16:05;3.80;99.90
21092;DHT22;10704;42.678;23.288;2022-12-18T05:18:31;3.70;99.90
21092;DHT22;10704;42.678;23.288;2022-12-18T05:20:57;3.70;99.90
21092;DHT22;10704;42.678;23.288;2022-12-18T05:27:11;3.80;99.90
21092;DHT22;10704;42.678;23.288;2022-12-18T05:29:37;3.80;99.90
21092;DHT22;10704;42.678;23.288;2022-12-18T05:32:03;3.90;99.90
21092;DHT22;10704;42.678;23.288;2022-12-18T05:34:29;3.90;99.90
21092;DHT22;10704;42.678;23.288;2022-12-18T05:36:55;3.90;99.90
21092;DHT22;10704;42.678;23.288;2022-12-18T05:39:21;3.90;99.90
21092;DHT22;10704;42.678;23.288;2022-12-18T05:41:46;4.00;99.90
21092;DHT22;10704;42.678;23.288;2022-12-18T05:44:12;4.00;99.90
21092;DHT22;10704;42.678;23.288;2022-12-18T05:46:41;4.00;99.90
21092;DHT22;10704;42.678;23.288;2022-12-18T05:49:07;3.90;99.90
21092;DHT22;10704;42.678;23.288;2022-12-18T05:51:33;3.80;99.90
21092;DHT22;10704;42.678;23.288;2022-12-18T05:57:46;3.70;99.90
21092;DHT22;10704;42.678;23.288;2022-12-18T06:00:12;3.70;99.90
21092;DHT22;10704;42.678;23.288;2022-12-18T06:02:38;3.80;99.90
21092;DHT22;10704;42.678;23.288;2022-12-18T06:05:04;3.70;99.90
21092;DHT22;10704;42.678;23.288;2022-12-18T06:07:30;3.70;99.90
21092;DHT22;10704;42.678;23.288;2022-12-18T06:09:56;3.70;99.90
21092;DHT22;10704;42.678;23.288;2022-12-18T06:12:22;3.70;99.90
21092;DHT22;10704;42.678;23.288;2022-12-18T06:14:48;3.70;99.90
21092;DHT22;10704;42.678;23.288;2022-12-18T06:17:14;3.70;99.90
21092;DHT22;10704;42.678;23.288;2022-12-18T06:19:40;3.70;99.90
21092;DHT22;10704;42.678;23.288;2022-12-18T06:25:32;3.70;99.90
21092;DHT22;10704;42.678;23.288;2022-12-18T06:27:58;3.70;99.90
21092;DHT22;10704;42.678;23.288;2022-12-18T06:30:24;3.80;99.90
21092;DHT22;10704;42.678;23.288;2022-12-18T06:33:12;3.80;99.90
21092;DHT22;10704;42.678;23.288;2022-12-18T06:35:38;3.80;99.90
21092;DHT22;10704;42.678;23.288;2022-12-18T06:51:33;3.70;99.90
21092;DHT22;10704;42.678;23.288;2022-12-18T06:53:59;3.60;99.90
21092;DHT22;10704;42.678;23.288;2022-12-18T06:56:25;3.60;99.90
21092;DHT22;10704;42.678;23.288;2022-12-18T06:58:51;3.70;99.90
21092;DHT22;10704;42.678;23.288;2022-12-18T07:01:17;3.70;99.90
21092;DHT22;10704;42.678;23.288;2022-12-18T07:03:43;3.80;99.90
21092;DHT22;10704;42.678;23.288;2022-12-18T07:06:32;3.80;99.90
21092;DHT22;10704;42.678;23.288;2022-12-18T07:09:14;3.80;99.90
21092;DHT22;10704;42.678;23.288;2022-12-18T07:15:27;3.80;99.90
21092;DHT22;10704;42.678;23.288;2022-12-18T07:17:53;3.80;99.90
21092;DHT22;10704;42.678;23.288;2022-12-18T07:20:19;3.90;99.90
21092;DHT22;10704;42.678;23.288;2022-12-18T07:22:45;3.90;99.90
21092;DHT22;10704;42.678;23.288;2022-12-18T07:25:11;3.90;99.90
21092;DHT22;10704;42.678;23.288;2022-12-18T07:27:36;3.90;99.90
21092;DHT22;10704;42.678;23.288;2022-12-18T07:30:03;3.80;99.90
21092;DHT22;10704;42.678;23.288;2022-12-18T07:32:30;3.80;99.90
21092;DHT22;10704;42.678;23.288;2022-12-18T07:34:56;3.80;99.90
21092;DHT22;10704;42.678;23.288;2022-12-18T07:37:22;3.80;99.90
21092;DHT22;10704;42.678;23.288;2022-12-18T07:39:47;3.80;99.90
21092;DHT22;10704;42.678;23.288;2022-12-18T07:42:41;3.90;99.90
21092;DHT22;10704;42.678;23.288;2022-12-18T07:45:07;3.80;99.90
21092;DHT22;10704;42.678;23.288;2022-12-18T07:47:36;3.80;99.90
21092;DHT22;10704;42.678;23.288;2022-12-18T07:54:08;3.80;99.90
21092;DHT22;10704;42.678;23.288;2022-12-18T07:56:34;3.70;99.90
21092;DHT22;10704;42.678;23.288;2022-12-18T07:59:03;3.70;99.90
21092;DHT22;10704;42.678;23.288;2022-12-18T08:01:29;3.70;99.90
21092;DHT22;10704;42.678;23.288;2022-12-18T08:03:55;3.80;99.90
21092;DHT22;10704;42.678;23.288;2022-12-18T08:10:08;3.60;99.90
21092;DHT22;10704;42.678;23.288;2022-12-18T08:12:34;3.50;99.90
21092;DHT22;10704;42.678;23.288;2022-12-18T08:18:47;3.50;99.90
21092;DHT22;10704;42.678;23.288;2022-12-18T08:27:37;3.60;99.90
21092;DHT22;10704;42.678;23.288;2022-12-18T08:30:04;3.70;99.90
21092;DHT22;10704;42.678;23.288;2022-12-18T08:36:18;3.50;99.90
21092;DHT22;10704;42.678;23.288;2022-12-18T08:38:45;3.40;99.90
21092;DHT22;10704;42.678;23.288;2022-12-18T08:41:28;3.30;99.90
21092;DHT22;10704;42.678;23.288;2022-12-18T08:43:54;3.40;99.90
21092;DHT22;10704;42.678;23.288;2022-12-18T08:50:25;3.50;99.90
21092;DHT22;10704;42.678;23.288;2022-12-18T08:52:51;3.60;99.90
21092;DHT22;10704;42.678;23.288;2022-12-18T08:55:22;3.70;99.90
21092;DHT22;10704;42.678;23.288;2022-12-18T08:57:49;3.70;99.90
21092;DHT22;10704;42.678;23.288;2022-12-18T09:00:17;3.60;99.90
21092;DHT22;10704;42.678;23.288;2022-12-18T09:06:30;3.80;99.90
21092;DHT22;10704;42.678;23.288;2022-12-18T09:08:57;3.90;99.90
21092;DHT22;10704;42.678;23.288;2022-12-18T09:11:24;3.90;99.90
21092;DHT22;10704;42.678;23.288;2022-12-18T09:13:51;4.00;99.90
21092;DHT22;10704;42.678;23.288;2022-12-18T09:16:17;3.90;99.90
21092;DHT22;10704;42.678;23.288;2022-12-18T09:18:45;4.10;99.90
21092;DHT22;10704;42.678;23.288;2022-12-18T09:21:17;4.20;99.90
21092;DHT22;10704;42.678;23.288;2022-12-18T09:23:48;4.20;99.90
21092;DHT22;10704;42.678;23.288;2022-12-18T09:26:14;4.20;99.90
21092;DHT22;10704;42.678;23.288;2022-12-18T09:28:40;4.20;99.90
21092;DHT22;10704;42.678;23.288;2022-12-18T09:31:07;4.30;99.90
21092;DHT22;10704;42.678;23.288;2022-12-18T09:33:34;4.30;99.90
21092;DHT22;10704;42.678;23.288;2022-12-18T09:36:32;4.40;99.90
21092;DHT22;10704;42.678;23.288;2022-12-18T09:49:58;4.50;99.90
21092;DHT22;10704;42.678;23.288;2022-12-18T09:52:38;4.40;99.90
21092;DHT22;10704;42.678;23.288;2022-12-18T09:55:22;4.60;99.90
21092;DHT22;10704;42.678;23.288;2022-12-18T09:57:57;4.40;99.90
21092;DHT22;10704;42.678;23.288;2022-12-18T10:00:25;4.40;99.90
21092;DHT22;10704;42.678;23.288;2022-12-18T10:02:53;4.40;99.90
21092;DHT22;10704;42.678;23.288;2022-12-18T10:05:41;4.50;99.90
21092;DHT22;10704;42.678;23.288;2022-12-18T10:08:22;4.50;99.90
21092;DHT22;10704;42.678;23.288;2022-12-18T10:10:52;4.40;99.90
21092;DHT22;10704;42.678;23.288;2022-12-18T10:24:42;4.60;99.90
21092;DHT22;10704;42.678;23.288;2022-12-18T10:27:15;4.70;99.90
21092;DHT22;10704;42.678;23.288;2022-12-18T10:29:43;4.60;99.90
21092;DHT22;10704;42.678;23.288;2022-12-18T10:32:18;4.40;99.90
21092;DHT22;10704;42.678;23.288;2022-12-18T10:34:46;4.60;99.90
21092;DHT22;10704;42.678;23.288;2022-12-18T10:37:18;4.50;99.90
21092;DHT22;10704;42.678;23.288;2022-12-18T10:39:46;4.50;99.90
21092;DHT22;10704;42.678;23.288;2022-12-18T10:42:19;4.40;99.90
21092;DHT22;10704;42.678;23.288;2022-12-18T10:44:45;4.30;99.90
21092;DHT22;10704;42.678;23.288;2022-12-18T10:47:15;4.20;99.90
21092;DHT22;10704;42.678;23.288;2022-12-18T10:49:52;4.30;99.90
21092;DHT22;10704;42.678;23.288;2022-12-18T10:52:22;4.50;99.90
21092;DHT22;10704;42.678;23.288;2022-12-18T10:58:38;4.70;99.90
21092;DHT22;10704;42.678;23.288;2022-12-18T11:03:42;4.70;99.90
21092;DHT22;10704;42.678;23.288;2022-12-18T11:06:13;4.50;99.90
21092;DHT22;10704;42.678;23.288;2022-12-18T11:08:41;4.50;99.90
21092;DHT22;10704;42.678;23.288;2022-12-18T11:11:20;4.60;99.90
21092;DHT22;10704;42.678;23.288;2022-12-18T11:16:22;4.40;99.90
21092;DHT22;10704;42.678;23.288;2022-12-18T11:18:49;4.40;99.90
21092;DHT22;10704;42.678;23.288;2022-12-18T11:21:15;4.50;99.90
21092;DHT22;10704;42.678;23.288;2022-12-18T11:23:51;4.40;99.90
21092;DHT22;10704;42.678;23.288;2022-12-18T11:26:18;4.30;99.90
21092;DHT22;10704;42.678;23.288;2022-12-18T11:28:49;4.20;99.90
21092;DHT22;10704;42.678;23.288;2022-12-18T11:31:27;4.10;99.90
21092;DHT22;10704;42.678;23.288;2022-12-18T11:36:29;4.30;99.90
21092;DHT22;10704;42.678;23.288;2022-12-18T11:39:02;4.30;99.90
21092;DHT22;10704;42.678;23.288;2022-12-18T11:45:29;4.50;99.90
21092;DHT22;10704;42.678;23.288;2022-12-18T11:50:37;4.30;99.90
21092;DHT22;10704;42.678;23.288;2022-12-18T11:53:12;4.40;99.90
21092;DHT22;10704;42.678;23.288;2022-12-18T11:56:11;4.50;99.90
21092;DHT22;10704;42.678;23.288;2022-12-18T12:21:38;4.60;99.90
21092;DHT22;10704;42.678;23.288;2022-12-18T12:24:19;4.60;99.90
21092;DHT22;10704;42.678;23.288;2022-12-18T12:32:45;4.80;99.90
21092;DHT22;10704;42.678;23.288;2022-12-18T12:38:24;4.60;99.90
21092;DHT22;10704;42.678;23.288;2022-12-18T12:44:44;4.60;99.90
21092;DHT22;10704;42.678;23.288;2022-12-18T12:47:23;4.60;99.90
21092;DHT22;10704;42.678;23.288;2022-12-18T12:49:51;4.60;99.90
21092;DHT22;10704;42.678;23.288;2022-12-18T12:52:35;4.70;99.90
21092;DHT22;10704;42.678;23.288;2022-12-18T12:55:04;4.70;99.90
21092;DHT22;10704;42.678;23.288;2022-12-18T13:03:41;4.70;99.90
21092;DHT22;10704;42.678;23.288;2022-12-18T13:18:21;4.80;99.90
21092;DHT22;10704;42.678;23.288;2022-12-18T13:21:10;4.70;99.90
21092;DHT22;10704;42.678;23.288;2022-12-18T13:23:40;4.80;99.90
21092;DHT22;10704;42.678;23.288;2022-12-18T13:26:30;4.70;99.90
21092;DHT22;10704;42.678;23.288;2022-12-18T13:28:58;4.60;99.90
21092;DHT22;10704;42.678;23.288;2022-12-18T13:34:21;4.60;99.90
21092;DHT22;10704;42.678;23.288;2022-12-18T13:36:47;4.50;99.90
21092;DHT22;10704;42.678;23.288;2022-12-18T13:42:41;4.50;99.90
21092;DHT22;10704;42.678;23.288;2022-12-18T13:52:40;4.50;99.90
21092;DHT22;10704;42.678;23.288;2022-12-18T13:55:13;4.50;99.90
21092;DHT22;10704;42.678;23.288;2022-12-18T13:58:05;4.50;99.90
21092;DHT22;10704;42.678;23.288;2022-12-18T14:00:31;4.50;99.90
21092;DHT22;10704;42.678;23.288;2022-12-18T14:02:58;4.50;99.90
21092;DHT22;10704;42.678;23.288;2022-12-18T14:05:34;4.50;99.90
21092;DHT22;10704;42.678;23.288;2022-12-18T14:08:21;4.60;99.90
21092;DHT22;10704;42.678;23.288;2022-12-18T14:10:50;4.60;99.90
21092;DHT22;10704;42.678;23.288;2022-12-18T14:13:29;4.70;99.90
21092;DHT22;10704;42.678;23.288;2022-12-18T14:19:48;4.50;99.90
21092;DHT22;10704;42.678;23.288;2022-12-18T14:22:52;4.60;99.90
21092;DHT22;10704;42.678;23.288;2022-12-18T14:25:45;4.60;99.90
21092;DHT22;10704;42.678;23.288;2022-12-18T14:28:15;4.50;99.90
21092;DHT22;10704;42.678;23.288;2022-12-18T14:33:54;4.40;99.90
21092;DHT22;10704;42.678;23.288;2022-12-18T14:36:29;4.30;99.90
21092;DHT22;10704;42.678;23.288;2022-12-18T14:38:56;4.30;99.90
21092;DHT22;10704;42.678;23.288;2022-12-18T14:41:23;4.30;99.90
21092;DHT22;10704;42.678;23.288;2022-12-18T14:43:51;4.30;99.90
21092;DHT22;10704;42.678;23.288;2022-12-18T14:46:37;4.20;99.90
21092;DHT22;10704;42.678;23.288;2022-12-18T14:52:27;4.30;99.90
21092;DHT22;10704;42.678;23.288;2022-12-18T14:54:54;4.30;99.90
21092;DHT22;10704;42.678;23.288;2022-12-18T15:11:57;4.30;99.90
21092;DHT22;10704;42.678;23.288;2022-12-18T15:14:46;4.20;99.90
21092;DHT22;10704;42.678;23.288;2022-12-18T15:17:30;4.10;99.90
21092;DHT22;10704;42.678;23.288;2022-12-18T15:20:09;4.20;99.90
21092;DHT22;10704;42.678;23.288;2022-12-18T15:26:25;4.10;99.90
21092;DHT22;10704;42.678;23.288;2022-12-18T15:28:53;4.10;99.90
21092;DHT22;10704;42.678;23.288;2022-12-18T15:36:23;4.00;99.90
21092;DHT22;10704;42.678;23.288;2022-12-18T15:38:50;4.00;99.90
21092;DHT22;10704;42.678;23.288;2022-12-18T15:41:35;4.00;99.90
21092;DHT22;10704;42.678;23.288;2022-12-18T15:44:03;4.00;99.90
21092;DHT22;10704;42.678;23.288;2022-12-18T15:50:16;4.00;99.90
21092;DHT22;10704;42.678;23.288;2022-12-18T16:00:58;3.80;99.90
21092;DHT22;10704;42.678;23.288;2022-12-18T16:03:31;3.70;99.90
21092;DHT22;10704;42.678;23.288;2022-12-18T16:05:57;3.70;99.90
21092;DHT22;10704;42.678;23.288;2022-12-18T16:08:25;3.70;99.90
21092;DHT22;10704;42.678;23.288;2022-12-18T16:14:19;3.70;99.90
21092;DHT22;10704;42.678;23.288;2022-12-18T16:16:47;3.60;99.90
21092;DHT22;10704;42.678;23.288;2022-12-18T16:19:14;3.60;99.90
21092;DHT22;10704;42.678;23.288;2022-12-18T16:21:39;3.60;99.90
21092;DHT22;10704;42.678;23.288;2022-12-18T16:27:54;3.50;99.90
21092;DHT22;10704;42.678;23.288;2022-12-18T16:34:23;3.40;99.90
21092;DHT22;10704;42.678;23.288;2022-12-18T16:36:53;3.40;99.90
21092;DHT22;10704;42.678;23.288;2022-12-18T16:39:32;3.40;99.90
21092;DHT22;10704;42.678;23.288;2022-12-18T16:41:59;3.50;99.90
21092;DHT22;10704;42.678;23.288;2022-12-18T16:47:33;3.40;99.90
21092;DHT22;10704;42.678;23.288;2022-12-18T16:49:59;3.40;99.90
21092;DHT22;10704;42.678;23.288;2022-12-18T16:52:25;3.40;99.90
21092;DHT22;10704;42.678;23.288;2022-12-18T16:58:56;3.30;99.90
21092;DHT22;10704;42.678;23.288;2022-12-18T17:05:09;3.40;99.90
21092;DHT22;10704;42.678;23.288;2022-12-18T17:07:37;3.30;99.90
21092;DHT22;10704;42.678;23.288;2022-12-18T17:10:03;3.30;99.90
21092;DHT22;10704;42.678;23.288;2022-12-18T17:12:30;3.30;99.90
21092;DHT22;10704;42.678;23.288;2022-12-18T17:14:56;3.30;99.90
21092;DHT22;10704;42.678;23.288;2022-12-18T17:21:10;3.30;99.90
21092;DHT22;10704;42.678;23.288;2022-12-18T17:23:38;3.20;99.90
21092;DHT22;10704;42.678;23.288;2022-12-18T17:29:50;3.20;99.90
21092;DHT22;10704;42.678;23.288;2022-12-18T17:32:17;3.10;99.90
21092;DHT22;10704;42.678;23.288;2022-12-18T17:38:29;3.10;99.90
21092;DHT22;10704;42.678;23.288;2022-12-18T17:41:00;3.10;99.90
21092;DHT22;10704;42.678;23.288;2022-12-18T17:43:26;3.10;99.90
21092;DHT22;10704;42.678;23.288;2022-12-18T17:45:52;3.10;99.90
21092;DHT22;10704;42.678;23.288;2022-12-18T17:48:18;3.10;99.90
21092;DHT22;10704;42.678;23.288;2022-12-18T17:50:44;3.10;99.90
21092;DHT22;10704;42.678;23.288;2022-12-18T17:53:12;3.10;99.90
21092;DHT22;10704;42.678;23.288;2022-12-18T17:55:38;3.00;99.90
21092;DHT22;10704;42.678;23.288;2022-12-18T17:58:04;2.90;99.90
21092;DHT22;10704;42.678;23.288;2022-12-18T18:00:29;3.00;99.90
21092;DHT22;10704;42.678;23.288;2022-12-18T18:02:55;3.00;99.90
21092;DHT22;10704;42.678;23.288;2022-12-18T18:05:21;3.10;99.90
21092;DHT22;10704;42.678;23.288;2022-12-18T18:07:48;3.00;99.90
21092;DHT22;10704;42.678;23.288;2022-12-18T18:10:14;3.00;99.90
21092;DHT22;10704;42.678;23.288;2022-12-18T18:12:41;3.00;99.90
21092;DHT22;10704;42.678;23.288;2022-12-18T18:15:25;3.00;99.90
21092;DHT22;10704;42.678;23.288;2022-12-18T18:17:51;3.00;99.90
21092;DHT22;10704;42.678;23.288;2022-12-18T18:20:20;3.00;99.90
21092;DHT22;10704;42.678;23.288;2022-12-18T18:22:46;3.00;99.90
21092;DHT22;10704;42.678;23.288;2022-12-18T18:25:12;2.90;99.90
21092;DHT22;10704;42.678;23.288;2022-12-18T18:27:38;3.00;99.90
21092;DHT22;10704;42.678;23.288;2022-12-18T18:30:04;3.00;99.90
21092;DHT22;10704;42.678;23.288;2022-12-18T18:32:30;2.90;99.90
21092;DHT22;10704;42.678;23.288;2022-12-18T18:34:56;2.90;99.90
21092;DHT22;10704;42.678;23.288;2022-12-18T18:37:22;2.70;99.90
21092;DHT22;10704;42.678;23.288;2022-12-18T18:39:47;2.60;99.90
21092;DHT22;10704;42.678;23.288;2022-12-18T18:42:13;2.60;99.90
21092;DHT22;10704;42.678;23.288;2022-12-18T18:44:39;2.60;99.90
21092;DHT22;10704;42.678;23.288;2022-12-18T18:47:05;2.70;99.90
21092;DHT22;10704;42.678;23.288;2022-12-18T18:49:31;2.70;99.90
21092;DHT22;10704;42.678;23.288;2022-12-18T18:51:57;2.70;99.90
21092;DHT22;10704;42.678;23.288;2022-12-18T18:54:24;2.60;99.90
21092;DHT22;10704;42.678;23.288;2022-12-18T18:56:50;2.60;99.90
21092;DHT22;10704;42.678;23.288;2022-12-18T18:59:16;2.60;99.90
21092;DHT22;10704;42.678;23.288;2022-12-18T19:01:42;2.60;99.90
21092;DHT22;10704;42.678;23.288;2022-12-18T19:04:08;2.60;99.90
21092;DHT22;10704;42.678;23.288;2022-12-18T19:06:34;2.50;99.90
21092;DHT22;10704;42.678;23.288;2022-12-18T19:12:47;2.50;99.90
21092;DHT22;10704;42.678;23.288;2022-12-18T19:18:58;2.50;99.90
21092;DHT22;10704;42.678;23.288;2022-12-18T19:21:24;2.40;99.90
21092;DHT22;10704;42.678;23.288;2022-12-18T19:23:51;2.30;99.90
21092;DHT22;10704;42.678;23.288;2022-12-18T19:26:18;2.40;99.90
21092;DHT22;10704;42.678;23.288;2022-12-18T19:28:44;2.40;99.90
21092;DHT22;10704;42.678;23.288;2022-12-18T19:31:13;2.40;99.90
21092;DHT22;10704;42.678;23.288;2022-12-18T19:33:41;2.30;99.90
21092;DHT22;10704;42.678;23.288;2022-12-18T19:36:21;2.30;99.90
21092;DHT22;10704;42.678;23.288;2022-12-18T19:38:48;2.10;99.90
21092;DHT22;10704;42.678;23.288;2022-12-18T19:41:15;2.10;99.90
21092;DHT22;10704;42.678;23.288;2022-12-18T19:43:43;2.10;99.90
21092;DHT22;10704;42.678;23.288;2022-12-18T19:46:12;2.10;99.90
21092;DHT22;10704;42.678;23.288;2022-12-18T19:48:39;2.20;99.90
21092;DHT22;10704;42.678;23.288;2022-12-18T19:51:08;2.20;99.90
21092;DHT22;10704;42.678;23.288;2022-12-18T19:53:35;2.20;99.90
21092;DHT22;10704;42.678;23.288;2022-12-18T19:56:11;2.20;99.90
21092;DHT22;10704;42.678;23.288;2022-12-18T19:58:38;2.10;99.90
21092;DHT22;10704;42.678;23.288;2022-12-18T20:01:04;2.10;99.90
21092;DHT22;10704;42.678;23.288;2022-12-18T20:07:22;1.90;99.90
21092;DHT22;10704;42.678;23.288;2022-12-18T20:09:47;1.90;99.90
21092;DHT22;10704;42.678;23.288;2022-12-18T20:16:01;1.80;99.90
21092;DHT22;10704;42.678;23.288;2022-12-18T20:18:27;1.80;99.90
21092;DHT22;10704;42.678;23.288;2022-12-18T20:20:53;1.70;99.90
21092;DHT22;10704;42.678;23.288;2022-12-18T20:23:19;1.70;99.90
21092;DHT22;10704;42.678;23.288;2022-12-18T20:25:46;1.60;99.90
21092;DHT22;10704;42.678;23.288;2022-12-18T20:28:12;1.50;99.90
21092;DHT22;10704;42.678;23.288;2022-12-18T20:30:38;1.50;99.90
21092;DHT22;10704;42.678;23.288;2022-12-18T20:33:04;1.40;99.90
21092;DHT22;10704;42.678;23.288;2022-12-18T20:35:31;1.30;99.90
21092;DHT22;10704;42.678;23.288;2022-12-18T20:37:58;1.40;99.90
21092;DHT22;10704;42.678;23.288;2022-12-18T20:40:24;1.60;99.90
21092;DHT22;10704;42.678;23.288;2022-12-18T20:43:12;1.30;99.90
21092;DHT22;10704;42.678;23.288;2022-12-18T20:45:38;1.20;99.90
21092;DHT22;10704;42.678;23.288;2022-12-18T20:48:04;1.10;99.90
21092;DHT22;10704;42.678;23.288;2022-12-18T20:50:31;1.00;99.90
21092;DHT22;10704;42.678;23.288;2022-12-18T20:53:06;0.90;99.90
21092;DHT22;10704;42.678;23.288;2022-12-18T20:55:32;0.90;99.90
21092;DHT22;10704;42.678;23.288;2022-12-18T20:57:58;0.80;99.90
21092;DHT22;10704;42.678;23.288;2022-12-18T21:00:24;0.70;99.90
21092;DHT22;10704;42.678;23.288;2022-12-18T21:02:50;0.60;99.90
21092;DHT22;10704;42.678;23.288;2022-12-18T21:05:16;0.60;99.90
21092;DHT22;10704;42.678;23.288;2022-12-18T21:17:49;0.70;99.90
21092;DHT22;10704;42.678;23.288;2022-12-18T21:20:15;0.80;99.90
21092;DHT22;10704;42.678;23.288;2022-12-18T21:30:07;0.80;99.90
21092;DHT22;10704;42.678;23.288;2022-12-18T21:32:44;0.80;99.90
21092;DHT22;10704;42.678;23.288;2022-12-18T21:35:43;0.80;99.90
21092;DHT22;10704;42.678;23.288;2022-12-18T21:41:24;0.80;99.90
21092;DHT22;10704;42.678;23.288;2022-12-18T21:47:56;0.60;99.90
21092;DHT22;10704;42.678;23.288;2022-12-18T21:54:10;0.70;99.90
21092;DHT22;10704;42.678;23.288;2022-12-18T22:03:13;0.70;99.90
21092;DHT22;10704;42.678;23.288;2022-12-18T22:05:39;0.70;99.90
21092;DHT22;10704;42.678;23.288;2022-12-18T22:08:05;0.70;99.90
21092;DHT22;10704;42.678;23.288;2022-12-18T22:10:32;0.50;99.90
21092;DHT22;10704;42.678;23.288;2022-12-18T22:12:57;0.30;99.90